Главная страница
METAR-TAF:

METAR-TAF

Аэропорты :

Йоэнсуу, Финляндия

широта: 62-40N, долгота: 029-38E, высота над уровнем моря: 119 м

Текущие метеонаблюдения

Эта сводка был подготовлена 29 минут назад, в 06:50 UTC
Ветер 13 Узел от северо-восточный, изменяющийся между северный и восточный
Температура 2°C
Влажность 55%
Давление 1028 hPa
Видимость 10 км и более
Рассеянная облачность на высоте 3500 фута

METAR: EFJO 290650Z 04013KT 010V080 9999 BKN035 02/M06 Q1028

Время: 10:19 (07:19 UTC)

Прогноз

Эта сводка был подготовлена 1 час и 41 минут назад, в 05:38 UTC
Прогноз действительный с 29-го 06 UTC до 29-го 15 UTC
Ветер 10 Узел от восточно-северо-восточный
Видимость 10 км и более
Нет облачности ниже 1500 м, и нет кучево-дождевой облачности
временами
С 29-го 08 UTC до 29-го 15 UTC
Ветер 13 Узел от восточный с порывами до 25 Узел

TAF: EFJO 290538Z 2906/2915 07010KT CAVOK TEMPO 2908/2915 08013G25KT

Метеонаблюдения и прогнозы для более 4000 аэропортов (сводки METAR и TAF).

Имеющиеся станции представлены на карте желтыми и красными точками.

Чтобы увидеть название станции, наведите на нее мышь.

Затем щелкните, чтобы увидеть метеонаблюдения и метеопрогнозы.

Управление картой: чтобы увеличить масштаб, щелкните зеленые кнопки с черным крестиком; чтобы уменьшить масштаб, щелкните зеленую кнопку с тире; для просмотра соседних карт щелкайте зеленые стрелки.


METAR-TAF: